sensor_id;sensor_type;location;lat;lon;timestamp;P1;durP1;ratioP1;P2;durP2;ratioP2
80211;SDS011;70434;37.956;23.722;2023-08-06T00:00:39;8.98;;;3.40;;
80211;SDS011;70434;37.956;23.722;2023-08-06T00:03:05;9.52;;;3.28;;
80211;SDS011;70434;37.956;23.722;2023-08-06T00:05:31;9.73;;;3.60;;
80211;SDS011;70434;37.956;23.722;2023-08-06T00:07:57;8.15;;;3.42;;
80211;SDS011;70434;37.956;23.722;2023-08-06T00:10:22;10.32;;;3.78;;
80211;SDS011;70434;37.956;23.722;2023-08-06T00:12:48;8.63;;;3.65;;
80211;SDS011;70434;37.956;23.722;2023-08-06T00:15:14;9.93;;;3.65;;
80211;SDS011;70434;37.956;23.722;2023-08-06T00:17:39;9.13;;;3.08;;
80211;SDS011;70434;37.956;23.722;2023-08-06T00:20:05;10.73;;;3.40;;
80211;SDS011;70434;37.956;23.722;2023-08-06T00:22:32;11.50;;;4.05;;
80211;SDS011;70434;37.956;23.722;2023-08-06T00:24:58;9.73;;;3.47;;
80211;SDS011;70434;37.956;23.722;2023-08-06T00:27:24;6.22;;;3.13;;
80211;SDS011;70434;37.956;23.722;2023-08-06T00:29:50;9.40;;;3.35;;
80211;SDS011;70434;37.956;23.722;2023-08-06T00:32:16;8.35;;;3.45;;
80211;SDS011;70434;37.956;23.722;2023-08-06T00:34:42;8.43;;;3.17;;
80211;SDS011;70434;37.956;23.722;2023-08-06T00:37:08;10.30;;;3.80;;
80211;SDS011;70434;37.956;23.722;2023-08-06T00:39:33;8.13;;;3.10;;
80211;SDS011;70434;37.956;23.722;2023-08-06T00:41:59;7.30;;;3.33;;
80211;SDS011;70434;37.956;23.722;2023-08-06T00:44:25;6.20;;;3.20;;
80211;SDS011;70434;37.956;23.722;2023-08-06T00:46:53;8.27;;;3.35;;
80211;SDS011;70434;37.956;23.722;2023-08-06T00:49:19;12.27;;;3.47;;
80211;SDS011;70434;37.956;23.722;2023-08-06T00:51:46;8.23;;;3.47;;
80211;SDS011;70434;37.956;23.722;2023-08-06T00:54:14;12.38;;;5.22;;
80211;SDS011;70434;37.956;23.722;2023-08-06T00:56:41;19.42;;;13.18;;
80211;SDS011;70434;37.956;23.722;2023-08-06T00:59:07;160.63;;;115.32;;
80211;SDS011;70434;37.956;23.722;2023-08-06T01:01:35;416.88;;;345.77;;
80211;SDS011;70434;37.956;23.722;2023-08-06T01:04:01;277.70;;;212.52;;
80211;SDS011;70434;37.956;23.722;2023-08-06T01:06:47;303.33;;;231.05;;
80211;SDS011;70434;37.956;23.722;2023-08-06T01:12:18;155.50;;;116.28;;
80211;SDS011;70434;37.956;23.722;2023-08-06T01:17:20;242.93;;;174.80;;
80211;SDS011;70434;37.956;23.722;2023-08-06T01:19:48;146.75;;;87.80;;
80211;SDS011;70434;37.956;23.722;2023-08-06T01:22:14;101.55;;;62.60;;
80211;SDS011;70434;37.956;23.722;2023-08-06T01:24:40;85.43;;;49.42;;
80211;SDS011;70434;37.956;23.722;2023-08-06T01:27:11;73.90;;;47.03;;
80211;SDS011;70434;37.956;23.722;2023-08-06T01:29:45;76.45;;;44.55;;
80211;SDS011;70434;37.956;23.722;2023-08-06T01:32:15;46.00;;;23.90;;
80211;SDS011;70434;37.956;23.722;2023-08-06T01:34:42;35.08;;;20.13;;
80211;SDS011;70434;37.956;23.722;2023-08-06T01:37:09;23.55;;;12.20;;
80211;SDS011;70434;37.956;23.722;2023-08-06T01:39:36;18.52;;;11.52;;
80211;SDS011;70434;37.956;23.722;2023-08-06T01:42:02;17.70;;;7.63;;
80211;SDS011;70434;37.956;23.722;2023-08-06T01:44:27;16.85;;;7.47;;
80211;SDS011;70434;37.956;23.722;2023-08-06T01:46:53;14.75;;;7.10;;
80211;SDS011;70434;37.956;23.722;2023-08-06T01:49:19;15.95;;;6.20;;
80211;SDS011;70434;37.956;23.722;2023-08-06T01:51:45;14.55;;;5.65;;
80211;SDS011;70434;37.956;23.722;2023-08-06T01:54:11;14.55;;;6.25;;
80211;SDS011;70434;37.956;23.722;2023-08-06T01:56:36;11.88;;;5.35;;
80211;SDS011;70434;37.956;23.722;2023-08-06T01:59:02;12.50;;;4.80;;
80211;SDS011;70434;37.956;23.722;2023-08-06T02:01:28;13.65;;;5.63;;
80211;SDS011;70434;37.956;23.722;2023-08-06T02:03:54;12.60;;;4.43;;
80211;SDS011;70434;37.956;23.722;2023-08-06T02:06:19;11.50;;;4.18;;
80211;SDS011;70434;37.956;23.722;2023-08-06T02:08:45;9.73;;;4.30;;
80211;SDS011;70434;37.956;23.722;2023-08-06T02:11:11;10.48;;;4.28;;
80211;SDS011;70434;37.956;23.722;2023-08-06T02:13:36;10.73;;;3.42;;
80211;SDS011;70434;37.956;23.722;2023-08-06T02:16:02;12.68;;;5.15;;
80211;SDS011;70434;37.956;23.722;2023-08-06T02:18:28;9.25;;;3.50;;
80211;SDS011;70434;37.956;23.722;2023-08-06T02:20:57;11.27;;;3.85;;
80211;SDS011;70434;37.956;23.722;2023-08-06T02:23:24;8.77;;;3.22;;
80211;SDS011;70434;37.956;23.722;2023-08-06T02:25:58;10.63;;;4.38;;
80211;SDS011;70434;37.956;23.722;2023-08-06T02:28:28;12.18;;;3.85;;
80211;SDS011;70434;37.956;23.722;2023-08-06T02:30:54;11.32;;;3.88;;
80211;SDS011;70434;37.956;23.722;2023-08-06T02:33:20;9.52;;;3.38;;
80211;SDS011;70434;37.956;23.722;2023-08-06T02:35:46;9.65;;;3.40;;
80211;SDS011;70434;37.956;23.722;2023-08-06T02:38:11;8.48;;;3.22;;
80211;SDS011;70434;37.956;23.722;2023-08-06T02:40:42;10.50;;;3.50;;
80211;SDS011;70434;37.956;23.722;2023-08-06T02:43:11;9.30;;;3.40;;
80211;SDS011;70434;37.956;23.722;2023-08-06T02:45:38;9.60;;;3.53;;
80211;SDS011;70434;37.956;23.722;2023-08-06T02:48:04;8.20;;;3.70;;
80211;SDS011;70434;37.956;23.722;2023-08-06T02:50:30;8.27;;;3.20;;
80211;SDS011;70434;37.956;23.722;2023-08-06T02:52:56;9.77;;;3.17;;
80211;SDS011;70434;37.956;23.722;2023-08-06T02:55:21;7.88;;;2.97;;
80211;SDS011;70434;37.956;23.722;2023-08-06T02:57:47;12.25;;;3.08;;
80211;SDS011;70434;37.956;23.722;2023-08-06T03:00:13;12.95;;;3.95;;
80211;SDS011;70434;37.956;23.722;2023-08-06T03:02:39;11.18;;;3.08;;
80211;SDS011;70434;37.956;23.722;2023-08-06T03:05:04;7.82;;;3.10;;
80211;SDS011;70434;37.956;23.722;2023-08-06T03:07:33;12.88;;;3.42;;
80211;SDS011;70434;37.956;23.722;2023-08-06T03:10:01;10.98;;;3.35;;
80211;SDS011;70434;37.956;23.722;2023-08-06T03:12:27;12.73;;;3.25;;
80211;SDS011;70434;37.956;23.722;2023-08-06T03:14:53;9.68;;;3.22;;
80211;SDS011;70434;37.956;23.722;2023-08-06T03:17:23;6.60;;;2.90;;
80211;SDS011;70434;37.956;23.722;2023-08-06T03:19:49;8.40;;;2.55;;
80211;SDS011;70434;37.956;23.722;2023-08-06T03:22:14;9.68;;;3.10;;
80211;SDS011;70434;37.956;23.722;2023-08-06T03:24:40;8.95;;;3.08;;
80211;SDS011;70434;37.956;23.722;2023-08-06T03:27:06;10.35;;;3.40;;
80211;SDS011;70434;37.956;23.722;2023-08-06T03:29:31;11.23;;;3.15;;
80211;SDS011;70434;37.956;23.722;2023-08-06T03:31:57;8.10;;;3.10;;
80211;SDS011;70434;37.956;23.722;2023-08-06T03:34:23;9.85;;;2.90;;
80211;SDS011;70434;37.956;23.722;2023-08-06T03:36:48;10.60;;;3.03;;
80211;SDS011;70434;37.956;23.722;2023-08-06T03:39:14;12.15;;;3.53;;
80211;SDS011;70434;37.956;23.722;2023-08-06T03:41:40;9.85;;;4.22;;
80211;SDS011;70434;37.956;23.722;2023-08-06T03:44:06;9.43;;;2.45;;
80211;SDS011;70434;37.956;23.722;2023-08-06T03:46:32;9.68;;;2.70;;
80211;SDS011;70434;37.956;23.722;2023-08-06T03:49:01;7.75;;;2.75;;
80211;SDS011;70434;37.956;23.722;2023-08-06T03:51:27;6.78;;;2.88;;
80211;SDS011;70434;37.956;23.722;2023-08-06T03:53:53;6.53;;;2.70;;
80211;SDS011;70434;37.956;23.722;2023-08-06T03:56:19;6.57;;;2.50;;
80211;SDS011;70434;37.956;23.722;2023-08-06T03:58:45;10.93;;;3.60;;
80211;SDS011;70434;37.956;23.722;2023-08-06T04:01:10;8.57;;;3.38;;
80211;SDS011;70434;37.956;23.722;2023-08-06T04:03:36;7.47;;;2.35;;
80211;SDS011;70434;37.956;23.722;2023-08-06T04:06:06;7.68;;;3.17;;
80211;SDS011;70434;37.956;23.722;2023-08-06T04:08:32;6.45;;;2.63;;
80211;SDS011;70434;37.956;23.722;2023-08-06T04:10:58;7.57;;;2.45;;
80211;SDS011;70434;37.956;23.722;2023-08-06T04:13:23;9.90;;;2.80;;
80211;SDS011;70434;37.956;23.722;2023-08-06T04:15:49;8.65;;;2.65;;
80211;SDS011;70434;37.956;23.722;2023-08-06T04:18:15;10.00;;;2.60;;
80211;SDS011;70434;37.956;23.722;2023-08-06T04:20:45;13.98;;;2.85;;
80211;SDS011;70434;37.956;23.722;2023-08-06T04:23:12;6.45;;;2.47;;
80211;SDS011;70434;37.956;23.722;2023-08-06T04:25:38;8.90;;;2.85;;
80211;SDS011;70434;37.956;23.722;2023-08-06T04:28:04;8.73;;;3.22;;
80211;SDS011;70434;37.956;23.722;2023-08-06T04:30:30;8.18;;;3.00;;
80211;SDS011;70434;37.956;23.722;2023-08-06T04:32:56;10.25;;;2.70;;
80211;SDS011;70434;37.956;23.722;2023-08-06T04:35:23;12.63;;;2.90;;
80211;SDS011;70434;37.956;23.722;2023-08-06T04:37:49;6.80;;;2.72;;
80211;SDS011;70434;37.956;23.722;2023-08-06T04:40:14;6.95;;;2.85;;
80211;SDS011;70434;37.956;23.722;2023-08-06T04:42:40;8.90;;;3.35;;
80211;SDS011;70434;37.956;23.722;2023-08-06T04:45:06;7.50;;;4.28;;
80211;SDS011;70434;37.956;23.722;2023-08-06T04:47:32;8.18;;;2.63;;
80211;SDS011;70434;37.956;23.722;2023-08-06T04:49:58;7.47;;;2.95;;
80211;SDS011;70434;37.956;23.722;2023-08-06T04:52:24;5.63;;;2.63;;
80211;SDS011;70434;37.956;23.722;2023-08-06T04:54:53;10.77;;;3.38;;
80211;SDS011;70434;37.956;23.722;2023-08-06T04:57:19;11.35;;;2.60;;
80211;SDS011;70434;37.956;23.722;2023-08-06T04:59:45;5.15;;;2.33;;
80211;SDS011;70434;37.956;23.722;2023-08-06T05:02:11;7.43;;;2.60;;
80211;SDS011;70434;37.956;23.722;2023-08-06T05:04:36;6.45;;;2.70;;
80211;SDS011;70434;37.956;23.722;2023-08-06T05:07:02;8.30;;;2.85;;
80211;SDS011;70434;37.956;23.722;2023-08-06T05:09:31;7.00;;;2.35;;
80211;SDS011;70434;37.956;23.722;2023-08-06T05:11:56;6.50;;;2.47;;
80211;SDS011;70434;37.956;23.722;2023-08-06T05:14:22;6.97;;;2.65;;
80211;SDS011;70434;37.956;23.722;2023-08-06T05:16:48;9.60;;;2.35;;
80211;SDS011;70434;37.956;23.722;2023-08-06T05:19:14;7.88;;;2.83;;
80211;SDS011;70434;37.956;23.722;2023-08-06T05:21:39;7.18;;;2.60;;
80211;SDS011;70434;37.956;23.722;2023-08-06T05:24:08;9.80;;;3.05;;
80211;SDS011;70434;37.956;23.722;2023-08-06T05:26:33;5.22;;;2.17;;
80211;SDS011;70434;37.956;23.722;2023-08-06T05:29:00;7.78;;;4.38;;
80211;SDS011;70434;37.956;23.722;2023-08-06T05:31:26;8.45;;;2.60;;
80211;SDS011;70434;37.956;23.722;2023-08-06T05:33:53;7.55;;;2.60;;
80211;SDS011;70434;37.956;23.722;2023-08-06T05:36:19;6.55;;;2.88;;
80211;SDS011;70434;37.956;23.722;2023-08-06T05:38:46;7.25;;;2.45;;
80211;SDS011;70434;37.956;23.722;2023-08-06T05:41:12;4.70;;;1.88;;
80211;SDS011;70434;37.956;23.722;2023-08-06T05:43:37;6.05;;;2.47;;
80211;SDS011;70434;37.956;23.722;2023-08-06T05:46:03;6.78;;;2.63;;
80211;SDS011;70434;37.956;23.722;2023-08-06T05:48:29;5.72;;;2.50;;
80211;SDS011;70434;37.956;23.722;2023-08-06T05:50:55;7.78;;;2.15;;
80211;SDS011;70434;37.956;23.722;2023-08-06T05:53:20;6.30;;;2.38;;
80211;SDS011;70434;37.956;23.722;2023-08-06T05:55:47;8.35;;;2.28;;
80211;SDS011;70434;37.956;23.722;2023-08-06T05:58:13;5.68;;;2.03;;
80211;SDS011;70434;37.956;23.722;2023-08-06T06:00:38;5.72;;;2.40;;
80211;SDS011;70434;37.956;23.722;2023-08-06T06:03:04;8.05;;;2.20;;
80211;SDS011;70434;37.956;23.722;2023-08-06T06:05:30;4.80;;;1.73;;
80211;SDS011;70434;37.956;23.722;2023-08-06T06:07:55;7.55;;;2.22;;
80211;SDS011;70434;37.956;23.722;2023-08-06T06:10:21;8.75;;;2.33;;
80211;SDS011;70434;37.956;23.722;2023-08-06T06:12:47;5.55;;;2.38;;
80211;SDS011;70434;37.956;23.722;2023-08-06T06:15:13;6.97;;;2.17;;
80211;SDS011;70434;37.956;23.722;2023-08-06T06:17:38;7.03;;;1.92;;
80211;SDS011;70434;37.956;23.722;2023-08-06T06:20:04;8.38;;;2.50;;
80211;SDS011;70434;37.956;23.722;2023-08-06T06:22:31;6.45;;;2.38;;
80211;SDS011;70434;37.956;23.722;2023-08-06T06:24:56;5.40;;;2.45;;
80211;SDS011;70434;37.956;23.722;2023-08-06T06:27:22;8.48;;;2.55;;
80211;SDS011;70434;37.956;23.722;2023-08-06T06:29:48;6.05;;;2.00;;
80211;SDS011;70434;37.956;23.722;2023-08-06T06:32:13;6.70;;;2.28;;
80211;SDS011;70434;37.956;23.722;2023-08-06T06:34:39;10.15;;;2.30;;
80211;SDS011;70434;37.956;23.722;2023-08-06T06:37:05;6.63;;;2.33;;
80211;SDS011;70434;37.956;23.722;2023-08-06T06:39:30;7.47;;;2.40;;
80211;SDS011;70434;37.956;23.722;2023-08-06T06:41:58;7.85;;;3.17;;
80211;SDS011;70434;37.956;23.722;2023-08-06T06:44:24;8.30;;;2.20;;
80211;SDS011;70434;37.956;23.722;2023-08-06T06:46:52;8.15;;;2.17;;
80211;SDS011;70434;37.956;23.722;2023-08-06T06:49:18;5.85;;;2.40;;
80211;SDS011;70434;37.956;23.722;2023-08-06T06:51:44;5.72;;;2.03;;
80211;SDS011;70434;37.956;23.722;2023-08-06T06:54:09;5.65;;;1.85;;
80211;SDS011;70434;37.956;23.722;2023-08-06T06:56:35;5.75;;;1.98;;
80211;SDS011;70434;37.956;23.722;2023-08-06T06:59:01;10.60;;;2.10;;
80211;SDS011;70434;37.956;23.722;2023-08-06T07:01:26;7.03;;;2.05;;
80211;SDS011;70434;37.956;23.722;2023-08-06T07:03:52;5.57;;;1.70;;
80211;SDS011;70434;37.956;23.722;2023-08-06T07:06:18;7.88;;;2.75;;
80211;SDS011;70434;37.956;23.722;2023-08-06T07:08:44;4.72;;;2.35;;
80211;SDS011;70434;37.956;23.722;2023-08-06T07:11:10;7.15;;;1.90;;
80211;SDS011;70434;37.956;23.722;2023-08-06T07:13:36;7.65;;;1.60;;
80211;SDS011;70434;37.956;23.722;2023-08-06T07:16:02;11.27;;;2.47;;
80211;SDS011;70434;37.956;23.722;2023-08-06T07:18:28;5.57;;;2.10;;
80211;SDS011;70434;37.956;23.722;2023-08-06T07:20:54;6.95;;;1.90;;
80211;SDS011;70434;37.956;23.722;2023-08-06T07:23:21;7.32;;;1.98;;
80211;SDS011;70434;37.956;23.722;2023-08-06T07:25:48;4.93;;;2.10;;
80211;SDS011;70434;37.956;23.722;2023-08-06T07:28:14;5.03;;;2.20;;
80211;SDS011;70434;37.956;23.722;2023-08-06T07:30:40;10.05;;;2.03;;
80211;SDS011;70434;37.956;23.722;2023-08-06T07:33:07;5.78;;;1.80;;
80211;SDS011;70434;37.956;23.722;2023-08-06T07:35:33;5.80;;;1.95;;
80211;SDS011;70434;37.956;23.722;2023-08-06T07:37:59;6.03;;;2.35;;
80211;SDS011;70434;37.956;23.722;2023-08-06T07:40:25;7.40;;;2.17;;
80211;SDS011;70434;37.956;23.722;2023-08-06T07:42:50;7.55;;;2.00;;
80211;SDS011;70434;37.956;23.722;2023-08-06T07:45:16;9.02;;;2.42;;
80211;SDS011;70434;37.956;23.722;2023-08-06T07:47:42;6.60;;;1.98;;
80211;SDS011;70434;37.956;23.722;2023-08-06T07:50:08;7.78;;;2.30;;
80211;SDS011;70434;37.956;23.722;2023-08-06T07:52:34;10.82;;;2.33;;
80211;SDS011;70434;37.956;23.722;2023-08-06T07:55:00;7.97;;;2.17;;
80211;SDS011;70434;37.956;23.722;2023-08-06T07:57:30;10.63;;;2.45;;
80211;SDS011;70434;37.956;23.722;2023-08-06T07:59:56;7.00;;;2.35;;
80211;SDS011;70434;37.956;23.722;2023-08-06T08:02:22;8.13;;;1.90;;
80211;SDS011;70434;37.956;23.722;2023-08-06T08:04:47;5.97;;;2.03;;
80211;SDS011;70434;37.956;23.722;2023-08-06T08:07:13;8.75;;;2.03;;
80211;SDS011;70434;37.956;23.722;2023-08-06T08:09:39;7.35;;;2.20;;
80211;SDS011;70434;37.956;23.722;2023-08-06T08:12:05;9.10;;;2.03;;
80211;SDS011;70434;37.956;23.722;2023-08-06T08:14:31;5.63;;;1.60;;
80211;SDS011;70434;37.956;23.722;2023-08-06T08:17:02;7.13;;;2.15;;
80211;SDS011;70434;37.956;23.722;2023-08-06T08:19:31;8.18;;;1.95;;
80211;SDS011;70434;37.956;23.722;2023-08-06T08:21:57;7.45;;;2.40;;
80211;SDS011;70434;37.956;23.722;2023-08-06T08:24:23;6.38;;;1.83;;
80211;SDS011;70434;37.956;23.722;2023-08-06T08:26:52;9.80;;;2.30;;
80211;SDS011;70434;37.956;23.722;2023-08-06T08:29:20;9.02;;;2.50;;
80211;SDS011;70434;37.956;23.722;2023-08-06T08:31:46;6.43;;;2.08;;
80211;SDS011;70434;37.956;23.722;2023-08-06T08:34:14;7.30;;;2.03;;
80211;SDS011;70434;37.956;23.722;2023-08-06T08:36:41;11.90;;;1.98;;
80211;SDS011;70434;37.956;23.722;2023-08-06T08:39:07;9.10;;;2.30;;
80211;SDS011;70434;37.956;23.722;2023-08-06T08:41:33;8.35;;;1.85;;
80211;SDS011;70434;37.956;23.722;2023-08-06T08:44:02;5.25;;;2.05;;
80211;SDS011;70434;37.956;23.722;2023-08-06T08:46:29;8.63;;;2.40;;
80211;SDS011;70434;37.956;23.722;2023-08-06T08:48:57;9.88;;;2.67;;
80211;SDS011;70434;37.956;23.722;2023-08-06T08:51:27;8.75;;;2.20;;
80211;SDS011;70434;37.956;23.722;2023-08-06T08:53:55;6.05;;;1.90;;
80211;SDS011;70434;37.956;23.722;2023-08-06T08:56:24;7.75;;;2.17;;
80211;SDS011;70434;37.956;23.722;2023-08-06T08:58:50;5.57;;;1.60;;
80211;SDS011;70434;37.956;23.722;2023-08-06T09:01:20;8.90;;;2.85;;
80211;SDS011;70434;37.956;23.722;2023-08-06T09:03:47;9.57;;;2.40;;
80211;SDS011;70434;37.956;23.722;2023-08-06T09:06:13;8.35;;;2.33;;
80211;SDS011;70434;37.956;23.722;2023-08-06T09:08:46;8.82;;;1.92;;
80211;SDS011;70434;37.956;23.722;2023-08-06T09:11:16;12.55;;;2.15;;
80211;SDS011;70434;37.956;23.722;2023-08-06T09:13:45;6.30;;;2.03;;
80211;SDS011;70434;37.956;23.722;2023-08-06T09:16:12;6.85;;;1.98;;
80211;SDS011;70434;37.956;23.722;2023-08-06T09:18:38;4.72;;;1.95;;
80211;SDS011;70434;37.956;23.722;2023-08-06T09:21:04;7.70;;;2.30;;
80211;SDS011;70434;37.956;23.722;2023-08-06T09:23:31;7.68;;;1.92;;
80211;SDS011;70434;37.956;23.722;2023-08-06T09:25:58;8.88;;;2.42;;
80211;SDS011;70434;37.956;23.722;2023-08-06T09:28:25;6.45;;;1.80;;
80211;SDS011;70434;37.956;23.722;2023-08-06T09:31:04;6.55;;;2.30;;
80211;SDS011;70434;37.956;23.722;2023-08-06T09:33:30;7.03;;;1.95;;
80211;SDS011;70434;37.956;23.722;2023-08-06T09:35:55;8.52;;;2.55;;
80211;SDS011;70434;37.956;23.722;2023-08-06T09:38:21;5.90;;;1.90;;
80211;SDS011;70434;37.956;23.722;2023-08-06T09:40:47;5.22;;;1.80;;
80211;SDS011;70434;37.956;23.722;2023-08-06T09:43:13;8.90;;;1.77;;
80211;SDS011;70434;37.956;23.722;2023-08-06T09:45:43;6.68;;;2.08;;
80211;SDS011;70434;37.956;23.722;2023-08-06T09:48:09;5.05;;;1.70;;
80211;SDS011;70434;37.956;23.722;2023-08-06T09:50:36;6.70;;;1.88;;
80211;SDS011;70434;37.956;23.722;2023-08-06T09:53:04;11.27;;;2.58;;
80211;SDS011;70434;37.956;23.722;2023-08-06T09:55:32;8.48;;;1.75;;
80211;SDS011;70434;37.956;23.722;2023-08-06T09:57:59;8.73;;;2.00;;
80211;SDS011;70434;37.956;23.722;2023-08-06T10:00:25;6.47;;;1.98;;
80211;SDS011;70434;37.956;23.722;2023-08-06T10:02:52;8.77;;;1.80;;
80211;SDS011;70434;37.956;23.722;2023-08-06T10:05:22;5.95;;;1.92;;
80211;SDS011;70434;37.956;23.722;2023-08-06T10:07:48;11.18;;;2.15;;
80211;SDS011;70434;37.956;23.722;2023-08-06T10:10:16;10.45;;;2.03;;
80211;SDS011;70434;37.956;23.722;2023-08-06T10:12:44;4.45;;;1.80;;
80211;SDS011;70434;37.956;23.722;2023-08-06T10:15:15;9.60;;;1.65;;
80211;SDS011;70434;37.956;23.722;2023-08-06T10:17:52;9.77;;;2.00;;
80211;SDS011;70434;37.956;23.722;2023-08-06T10:20:22;7.82;;;1.77;;
80211;SDS011;70434;37.956;23.722;2023-08-06T10:23:01;5.43;;;1.75;;
80211;SDS011;70434;37.956;23.722;2023-08-06T10:25:32;10.25;;;3.20;;
80211;SDS011;70434;37.956;23.722;2023-08-06T10:27:59;8.57;;;1.85;;
80211;SDS011;70434;37.956;23.722;2023-08-06T10:32:56;11.00;;;1.80;;
80211;SDS011;70434;37.956;23.722;2023-08-06T10:35:30;16.20;;;5.53;;
80211;SDS011;70434;37.956;23.722;2023-08-06T10:38:22;11.82;;;3.40;;
80211;SDS011;70434;37.956;23.722;2023-08-06T10:45:53;6.55;;;1.25;;
80211;SDS011;70434;37.956;23.722;2023-08-06T10:48:37;8.18;;;1.60;;
80211;SDS011;70434;37.956;23.722;2023-08-06T10:51:07;7.03;;;1.73;;
80211;SDS011;70434;37.956;23.722;2023-08-06T10:53:35;8.48;;;1.75;;
80211;SDS011;70434;37.956;23.722;2023-08-06T10:56:01;5.50;;;1.60;;
80211;SDS011;70434;37.956;23.722;2023-08-06T10:58:36;4.90;;;1.67;;
80211;SDS011;70434;37.956;23.722;2023-08-06T11:01:02;7.93;;;1.85;;
80211;SDS011;70434;37.956;23.722;2023-08-06T11:03:28;7.10;;;1.92;;
80211;SDS011;70434;37.956;23.722;2023-08-06T11:05:54;7.10;;;2.05;;
80211;SDS011;70434;37.956;23.722;2023-08-06T11:08:26;8.95;;;1.75;;
80211;SDS011;70434;37.956;23.722;2023-08-06T11:10:52;6.38;;;1.88;;
80211;SDS011;70434;37.956;23.722;2023-08-06T11:13:18;7.47;;;1.40;;
80211;SDS011;70434;37.956;23.722;2023-08-06T11:15:45;8.32;;;1.30;;
80211;SDS011;70434;37.956;23.722;2023-08-06T11:18:10;7.50;;;1.67;;
80211;SDS011;70434;37.956;23.722;2023-08-06T11:20:36;6.38;;;1.70;;
80211;SDS011;70434;37.956;23.722;2023-08-06T11:23:04;8.32;;;1.70;;
80211;SDS011;70434;37.956;23.722;2023-08-06T11:25:31;8.60;;;2.08;;
80211;SDS011;70434;37.956;23.722;2023-08-06T11:28:01;7.75;;;1.88;;
80211;SDS011;70434;37.956;23.722;2023-08-06T11:30:27;7.90;;;2.13;;
80211;SDS011;70434;37.956;23.722;2023-08-06T11:32:52;4.72;;;1.48;;
80211;SDS011;70434;37.956;23.722;2023-08-06T11:35:18;4.18;;;1.35;;
80211;SDS011;70434;37.956;23.722;2023-08-06T11:37:47;8.95;;;1.88;;
80211;SDS011;70434;37.956;23.722;2023-08-06T11:40:16;8.70;;;1.90;;
80211;SDS011;70434;37.956;23.722;2023-08-06T11:42:42;6.70;;;1.67;;
80211;SDS011;70434;37.956;23.722;2023-08-06T11:45:08;7.05;;;1.38;;
80211;SDS011;70434;37.956;23.722;2023-08-06T11:47:34;9.32;;;1.90;;
80211;SDS011;70434;37.956;23.722;2023-08-06T11:50:05;9.98;;;1.85;;
80211;SDS011;70434;37.956;23.722;2023-08-06T11:52:31;7.30;;;1.60;;
80211;SDS011;70434;37.956;23.722;2023-08-06T11:57:28;5.60;;;1.40;;
80211;SDS011;70434;37.956;23.722;2023-08-06T11:59:58;5.47;;;1.35;;
80211;SDS011;70434;37.956;23.722;2023-08-06T12:02:30;6.80;;;1.48;;
80211;SDS011;70434;37.956;23.722;2023-08-06T12:07:39;6.82;;;0.98;;
80211;SDS011;70434;37.956;23.722;2023-08-06T12:10:06;5.72;;;1.60;;
80211;SDS011;70434;37.956;23.722;2023-08-06T12:12:36;5.13;;;1.50;;
80211;SDS011;70434;37.956;23.722;2023-08-06T12:15:02;8.63;;;1.25;;
80211;SDS011;70434;37.956;23.722;2023-08-06T12:17:29;6.40;;;1.42;;
80211;SDS011;70434;37.956;23.722;2023-08-06T12:19:54;9.35;;;1.27;;
80211;SDS011;70434;37.956;23.722;2023-08-06T12:22:20;4.90;;;1.40;;
80211;SDS011;70434;37.956;23.722;2023-08-06T12:24:46;4.88;;;1.33;;
80211;SDS011;70434;37.956;23.722;2023-08-06T12:27:13;7.40;;;1.25;;
80211;SDS011;70434;37.956;23.722;2023-08-06T12:29:43;10.23;;;1.60;;
80211;SDS011;70434;37.956;23.722;2023-08-06T12:32:10;9.35;;;1.67;;
80211;SDS011;70434;37.956;23.722;2023-08-06T12:34:37;5.35;;;1.23;;
80211;SDS011;70434;37.956;23.722;2023-08-06T12:37:04;3.50;;;1.38;;
80211;SDS011;70434;37.956;23.722;2023-08-06T12:39:31;5.28;;;1.67;;
80211;SDS011;70434;37.956;23.722;2023-08-06T12:41:58;7.00;;;1.40;;
80211;SDS011;70434;37.956;23.722;2023-08-06T12:44:27;7.22;;;1.30;;
80211;SDS011;70434;37.956;23.722;2023-08-06T12:46:53;9.50;;;1.40;;
80211;SDS011;70434;37.956;23.722;2023-08-06T12:49:19;5.80;;;1.20;;
80211;SDS011;70434;37.956;23.722;2023-08-06T12:51:50;8.60;;;1.55;;
80211;SDS011;70434;37.956;23.722;2023-08-06T12:54:17;7.00;;;1.70;;
80211;SDS011;70434;37.956;23.722;2023-08-06T12:56:44;6.60;;;1.38;;
80211;SDS011;70434;37.956;23.722;2023-08-06T12:59:10;4.47;;;1.02;;
80211;SDS011;70434;37.956;23.722;2023-08-06T13:01:37;4.32;;;1.20;;
80211;SDS011;70434;37.956;23.722;2023-08-06T13:04:03;4.85;;;1.08;;
80211;SDS011;70434;37.956;23.722;2023-08-06T13:06:29;7.47;;;1.38;;
80211;SDS011;70434;37.956;23.722;2023-08-06T13:08:56;5.68;;;1.73;;
80211;SDS011;70434;37.956;23.722;2023-08-06T13:11:22;6.65;;;1.38;;
80211;SDS011;70434;37.956;23.722;2023-08-06T13:13:49;4.32;;;1.30;;
80211;SDS011;70434;37.956;23.722;2023-08-06T13:16:15;5.57;;;1.20;;
80211;SDS011;70434;37.956;23.722;2023-08-06T13:18:40;5.07;;;1.17;;
80211;SDS011;70434;37.956;23.722;2023-08-06T13:21:06;9.32;;;1.10;;
80211;SDS011;70434;37.956;23.722;2023-08-06T13:23:32;11.27;;;1.30;;
80211;SDS011;70434;37.956;23.722;2023-08-06T13:25:57;8.13;;;1.70;;
80211;SDS011;70434;37.956;23.722;2023-08-06T13:28:23;2.35;;;1.10;;
80211;SDS011;70434;37.956;23.722;2023-08-06T13:30:49;5.88;;;1.10;;
80211;SDS011;70434;37.956;23.722;2023-08-06T13:33:15;3.35;;;1.10;;
80211;SDS011;70434;37.956;23.722;2023-08-06T13:35:41;4.78;;;0.98;;
80211;SDS011;70434;37.956;23.722;2023-08-06T13:38:07;3.65;;;0.90;;
80211;SDS011;70434;37.956;23.722;2023-08-06T13:40:33;5.88;;;1.40;;
80211;SDS011;70434;37.956;23.722;2023-08-06T13:43:02;5.45;;;1.13;;
80211;SDS011;70434;37.956;23.722;2023-08-06T13:45:27;4.35;;;0.90;;
80211;SDS011;70434;37.956;23.722;2023-08-06T13:47:54;5.88;;;1.90;;
80211;SDS011;70434;37.956;23.722;2023-08-06T13:50:20;5.05;;;1.20;;
80211;SDS011;70434;37.956;23.722;2023-08-06T13:52:47;3.08;;;1.10;;
80211;SDS011;70434;37.956;23.722;2023-08-06T13:55:12;6.40;;;1.20;;
80211;SDS011;70434;37.956;23.722;2023-08-06T13:57:38;6.25;;;1.27;;
80211;SDS011;70434;37.956;23.722;2023-08-06T14:00:04;6.45;;;1.40;;
80211;SDS011;70434;37.956;23.722;2023-08-06T14:02:30;6.15;;;1.88;;
80211;SDS011;70434;37.956;23.722;2023-08-06T14:04:56;5.63;;;1.65;;
80211;SDS011;70434;37.956;23.722;2023-08-06T14:07:22;6.40;;;1.55;;
80211;SDS011;70434;37.956;23.722;2023-08-06T14:09:48;4.05;;;1.02;;
80211;SDS011;70434;37.956;23.722;2023-08-06T14:12:14;8.25;;;1.50;;
80211;SDS011;70434;37.956;23.722;2023-08-06T14:14:40;4.93;;;1.48;;
80211;SDS011;70434;37.956;23.722;2023-08-06T14:17:06;7.97;;;0.90;;
80211;SDS011;70434;37.956;23.722;2023-08-06T14:19:31;7.32;;;1.30;;
80211;SDS011;70434;37.956;23.722;2023-08-06T14:21:57;3.55;;;1.10;;
80211;SDS011;70434;37.956;23.722;2023-08-06T14:24:23;6.88;;;1.45;;
80211;SDS011;70434;37.956;23.722;2023-08-06T14:26:49;4.07;;;1.40;;
80211;SDS011;70434;37.956;23.722;2023-08-06T14:29:14;5.05;;;1.55;;
80211;SDS011;70434;37.956;23.722;2023-08-06T14:31:40;6.18;;;1.10;;
80211;SDS011;70434;37.956;23.722;2023-08-06T14:34:06;3.90;;;1.13;;
80211;SDS011;70434;37.956;23.722;2023-08-06T14:36:32;5.45;;;1.17;;
80211;SDS011;70434;37.956;23.722;2023-08-06T14:38:58;5.70;;;1.23;;
80211;SDS011;70434;37.956;23.722;2023-08-06T14:41:23;3.58;;;1.02;;
80211;SDS011;70434;37.956;23.722;2023-08-06T14:43:49;2.55;;;1.10;;
80211;SDS011;70434;37.956;23.722;2023-08-06T14:46:16;6.47;;;1.33;;